sensor_id;sensor_type;location;lat;lon;timestamp;pressure;altitude;pressure_sealevel;temperature;humidity
72086;BME280;64750;52.134;5.424;2023-04-26T00:01:44;102138.44;;;6.27;71.43
72086;BME280;64750;52.134;5.424;2023-04-26T00:04:11;102145.44;;;6.25;71.45
72086;BME280;64750;52.134;5.424;2023-04-26T00:06:38;102149.03;;;6.19;71.52
72086;BME280;64750;52.134;5.424;2023-04-26T00:09:04;102147.31;;;6.18;71.73
72086;BME280;64750;52.134;5.424;2023-04-26T00:11:30;102151.78;;;6.13;71.68
72086;BME280;64750;52.134;5.424;2023-04-26T00:13:57;102149.19;;;6.12;71.78
72086;BME280;64750;52.134;5.424;2023-04-26T00:16:24;102155.28;;;6.12;71.66
72086;BME280;64750;52.134;5.424;2023-04-26T00:18:51;102145.81;;;6.06;71.69
72086;BME280;64750;52.134;5.424;2023-04-26T00:21:17;102148.31;;;6.11;71.82
72086;BME280;64750;52.134;5.424;2023-04-26T00:23:44;102148.34;;;6.10;71.60
72086;BME280;64750;52.134;5.424;2023-04-26T00:26:10;102148.41;;;6.08;71.56
72086;BME280;64750;52.134;5.424;2023-04-26T00:28:37;102144.94;;;6.06;71.58
72086;BME280;64750;52.134;5.424;2023-04-26T00:31:03;102142.34;;;6.06;71.56
72086;BME280;64750;52.134;5.424;2023-04-26T00:33:29;102134.59;;;6.03;71.52
72086;BME280;64750;52.134;5.424;2023-04-26T00:35:56;102139.84;;;6.00;71.44
72086;BME280;64750;52.134;5.424;2023-04-26T00:38:23;102138.25;;;5.93;71.30
72086;BME280;64750;52.134;5.424;2023-04-26T00:40:49;102137.44;;;5.89;71.58
72086;BME280;64750;52.134;5.424;2023-04-26T00:43:15;102139.31;;;5.82;71.56
72086;BME280;64750;52.134;5.424;2023-04-26T00:45:42;102143.75;;;5.77;71.59
72086;BME280;64750;52.134;5.424;2023-04-26T00:48:08;102129.06;;;5.73;71.87
72086;BME280;64750;52.134;5.424;2023-04-26T00:50:35;102130.78;;;5.72;71.89
72086;BME280;64750;52.134;5.424;2023-04-26T00:53:02;102135.16;;;5.72;71.83
72086;BME280;64750;52.134;5.424;2023-04-26T00:55:29;102135.25;;;5.66;71.63
72086;BME280;64750;52.134;5.424;2023-04-26T00:57:55;102131.88;;;5.61;71.70
72086;BME280;64750;52.134;5.424;2023-04-26T01:00:21;102131.16;;;5.52;71.99
72086;BME280;64750;52.134;5.424;2023-04-26T01:02:48;102132.94;;;5.50;72.02
72086;BME280;64750;52.134;5.424;2023-04-26T01:05:15;102129.63;;;5.40;72.18
72086;BME280;64750;52.134;5.424;2023-04-26T01:07:41;102133.16;;;5.38;72.28
72086;BME280;64750;52.134;5.424;2023-04-26T01:10:09;102137.56;;;5.36;72.44
72086;BME280;64750;52.134;5.424;2023-04-26T01:12:37;102137.59;;;5.33;72.46
72086;BME280;64750;52.134;5.424;2023-04-26T01:15:04;102144.59;;;5.31;72.66
72086;BME280;64750;52.134;5.424;2023-04-26T01:17:31;102145.50;;;5.28;72.41
72086;BME280;64750;52.134;5.424;2023-04-26T01:19:57;102154.25;;;5.24;72.37
72086;BME280;64750;52.134;5.424;2023-04-26T01:22:24;102151.69;;;5.21;72.43
72086;BME280;64750;52.134;5.424;2023-04-26T01:24:51;102149.13;;;5.19;72.37
72086;BME280;64750;52.134;5.424;2023-04-26T01:27:20;102150.00;;;5.18;72.41
72086;BME280;64750;52.134;5.424;2023-04-26T01:29:46;102155.25;;;5.15;72.20
72086;BME280;64750;52.134;5.424;2023-04-26T01:32:12;102157.03;;;5.13;72.44
72086;BME280;64750;52.134;5.424;2023-04-26T01:34:39;102151.84;;;5.10;72.32
72086;BME280;64750;52.134;5.424;2023-04-26T01:37:05;102154.50;;;5.08;72.38
72086;BME280;64750;52.134;5.424;2023-04-26T01:39:33;102154.53;;;5.07;72.22
72086;BME280;64750;52.134;5.424;2023-04-26T01:42:00;102151.91;;;5.07;72.39
72086;BME280;64750;52.134;5.424;2023-04-26T01:44:28;102152.84;;;5.03;72.17
72086;BME280;64750;52.134;5.424;2023-04-26T01:46:54;102154.63;;;4.99;72.27
72086;BME280;64750;52.134;5.424;2023-04-26T01:49:21;102158.19;;;4.95;72.23
72086;BME280;64750;52.134;5.424;2023-04-26T01:51:47;102148.63;;;4.96;72.15
72086;BME280;64750;52.134;5.424;2023-04-26T01:54:14;102142.47;;;5.00;72.41
72086;BME280;64750;52.134;5.424;2023-04-26T01:56:40;102144.19;;;5.01;72.04
72086;BME280;64750;52.134;5.424;2023-04-26T01:59:07;102142.44;;;5.03;71.96
72086;BME280;64750;52.134;5.424;2023-04-26T02:01:33;102142.38;;;5.06;71.90
72086;BME280;64750;52.134;5.424;2023-04-26T02:04:00;102142.41;;;5.04;72.04
72086;BME280;64750;52.134;5.424;2023-04-26T02:06:26;102138.94;;;5.04;71.80
72086;BME280;64750;52.134;5.424;2023-04-26T02:08:53;102143.38;;;4.99;71.84
72086;BME280;64750;52.134;5.424;2023-04-26T02:11:19;102144.28;;;4.96;71.78
72086;BME280;64750;52.134;5.424;2023-04-26T02:13:46;102143.47;;;4.92;71.90
72086;BME280;64750;52.134;5.424;2023-04-26T02:16:12;102146.13;;;4.88;71.93
72086;BME280;64750;52.134;5.424;2023-04-26T02:18:41;102142.72;;;4.83;72.40
72086;BME280;64750;52.134;5.424;2023-04-26T02:21:10;102148.81;;;4.82;72.35
72086;BME280;64750;52.134;5.424;2023-04-26T02:23:36;102146.19;;;4.85;72.41
72086;BME280;64750;52.134;5.424;2023-04-26T02:26:03;102139.13;;;4.91;72.38
72086;BME280;64750;52.134;5.424;2023-04-26T02:28:30;102143.47;;;4.92;71.87
72086;BME280;64750;52.134;5.424;2023-04-26T02:30:56;102149.66;;;4.84;72.39
72086;BME280;64750;52.134;5.424;2023-04-26T02:33:23;102144.50;;;4.79;72.16
72086;BME280;64750;52.134;5.424;2023-04-26T02:35:50;102153.25;;;4.75;72.16
72086;BME280;64750;52.134;5.424;2023-04-26T02:38:16;102156.00;;;4.66;72.70
72086;BME280;64750;52.134;5.424;2023-04-26T02:40:43;102154.22;;;4.68;72.74
72086;BME280;64750;52.134;5.424;2023-04-26T02:43:09;102148.09;;;4.70;72.64
72086;BME280;64750;52.134;5.424;2023-04-26T02:45:42;102142.97;;;4.67;72.87
72086;BME280;64750;52.134;5.424;2023-04-26T02:48:08;102148.13;;;4.69;72.65
72086;BME280;64750;52.134;5.424;2023-04-26T02:50:35;102144.72;;;4.65;72.51
72086;BME280;64750;52.134;5.424;2023-04-26T02:53:01;102143.88;;;4.65;72.60
72086;BME280;64750;52.134;5.424;2023-04-26T02:55:28;102147.34;;;4.64;72.54
72086;BME280;64750;52.134;5.424;2023-04-26T02:57:55;102138.75;;;4.58;72.58
72086;BME280;64750;52.134;5.424;2023-04-26T03:00:21;102146.56;;;4.57;72.74
72086;BME280;64750;52.134;5.424;2023-04-26T03:02:48;102144.84;;;4.56;72.75
72086;BME280;64750;52.134;5.424;2023-04-26T03:05:15;102144.00;;;4.55;72.50
72086;BME280;64750;52.134;5.424;2023-04-26T03:07:41;102137.94;;;4.53;72.49
72086;BME280;64750;52.134;5.424;2023-04-26T03:10:08;102137.13;;;4.51;72.71
72086;BME280;64750;52.134;5.424;2023-04-26T03:12:35;102134.50;;;4.50;72.52
72086;BME280;64750;52.134;5.424;2023-04-26T03:15:01;102135.41;;;4.47;72.63
72086;BME280;64750;52.134;5.424;2023-04-26T03:17:29;102137.22;;;4.42;72.81
72086;BME280;64750;52.134;5.424;2023-04-26T03:19:55;102141.59;;;4.40;72.37
72086;BME280;64750;52.134;5.424;2023-04-26T03:22:22;102139.00;;;4.40;73.06
72086;BME280;64750;52.134;5.424;2023-04-26T03:24:48;102132.97;;;4.36;73.02
72086;BME280;64750;52.134;5.424;2023-04-26T03:27:15;102137.34;;;4.33;72.97
72086;BME280;64750;52.134;5.424;2023-04-26T03:29:41;102139.09;;;4.31;72.68
72086;BME280;64750;52.134;5.424;2023-04-26T03:32:09;102129.56;;;4.31;73.00
72086;BME280;64750;52.134;5.424;2023-04-26T03:34:36;102131.28;;;4.31;72.82
72086;BME280;64750;52.134;5.424;2023-04-26T03:37:02;102135.63;;;4.32;73.06
72086;BME280;64750;52.134;5.424;2023-04-26T03:39:29;102133.06;;;4.30;73.04
72086;BME280;64750;52.134;5.424;2023-04-26T03:41:55;102128.69;;;4.31;73.04
72086;BME280;64750;52.134;5.424;2023-04-26T03:44:21;102119.09;;;4.36;73.04
72086;BME280;64750;52.134;5.424;2023-04-26T03:46:48;102126.00;;;4.38;73.28
72086;BME280;64750;52.134;5.424;2023-04-26T03:49:14;102130.41;;;4.35;73.08
72086;BME280;64750;52.134;5.424;2023-04-26T03:51:40;102128.69;;;4.32;73.35
72086;BME280;64750;52.134;5.424;2023-04-26T03:54:07;102130.41;;;4.32;73.30
72086;BME280;64750;52.134;5.424;2023-04-26T03:56:33;102127.00;;;4.30;73.10
72086;BME280;64750;52.134;5.424;2023-04-26T03:59:00;102137.47;;;4.23;73.30
72086;BME280;64750;52.134;5.424;2023-04-26T04:01:26;102137.50;;;4.20;73.10
72086;BME280;64750;52.134;5.424;2023-04-26T04:03:53;102137.50;;;4.20;73.27
72086;BME280;64750;52.134;5.424;2023-04-26T04:06:20;102132.28;;;4.23;73.36
72086;BME280;64750;52.134;5.424;2023-04-26T04:08:47;102129.63;;;4.26;73.49
72086;BME280;64750;52.134;5.424;2023-04-26T04:11:13;102131.31;;;4.29;73.54
72086;BME280;64750;52.134;5.424;2023-04-26T04:13:42;102130.41;;;4.32;73.12
72086;BME280;64750;52.134;5.424;2023-04-26T04:16:08;102133.03;;;4.32;73.13
72086;BME280;64750;52.134;5.424;2023-04-26T04:18:35;102126.16;;;4.26;73.14
72086;BME280;64750;52.134;5.424;2023-04-26T04:21:02;102124.44;;;4.25;73.44
72086;BME280;64750;52.134;5.424;2023-04-26T04:23:28;102127.94;;;4.22;73.46
72086;BME280;64750;52.134;5.424;2023-04-26T04:25:55;102131.41;;;4.21;73.39
72086;BME280;64750;52.134;5.424;2023-04-26T04:28:21;102136.69;;;4.15;73.34
72086;BME280;64750;52.134;5.424;2023-04-26T04:30:48;102129.84;;;4.09;73.37
72086;BME280;64750;52.134;5.424;2023-04-26T04:33:15;102131.56;;;4.10;73.54
72086;BME280;64750;52.134;5.424;2023-04-26T04:35:43;102134.16;;;4.12;73.76
72086;BME280;64750;52.134;5.424;2023-04-26T04:38:10;102134.16;;;4.12;73.64
72086;BME280;64750;52.134;5.424;2023-04-26T04:40:36;102135.81;;;4.16;74.29
72086;BME280;64750;52.134;5.424;2023-04-26T04:43:03;102125.41;;;4.19;74.44
72086;BME280;64750;52.134;5.424;2023-04-26T04:45:29;102124.41;;;4.30;74.01
72086;BME280;64750;52.134;5.424;2023-04-26T04:47:55;102128.72;;;4.29;74.01
72086;BME280;64750;52.134;5.424;2023-04-26T04:50:22;102133.09;;;4.29;74.32
72086;BME280;64750;52.134;5.424;2023-04-26T04:52:49;102131.28;;;4.31;74.38
72086;BME280;64750;52.134;5.424;2023-04-26T04:55:15;102134.00;;;4.23;74.25
72086;BME280;64750;52.134;5.424;2023-04-26T04:57:42;102138.41;;;4.18;74.64
72086;BME280;64750;52.134;5.424;2023-04-26T05:00:09;102144.50;;;4.18;74.42
72086;BME280;64750;52.134;5.424;2023-04-26T05:02:36;102133.19;;;4.18;75.00
72086;BME280;64750;52.134;5.424;2023-04-26T05:05:03;102138.34;;;4.22;75.18
72086;BME280;64750;52.134;5.424;2023-04-26T05:07:31;102140.94;;;4.24;74.93
72086;BME280;64750;52.134;5.424;2023-04-26T05:09:58;102144.38;;;4.27;74.91
72086;BME280;64750;52.134;5.424;2023-04-26T05:12:25;102149.50;;;4.34;75.32
72086;BME280;64750;52.134;5.424;2023-04-26T05:14:52;102148.56;;;4.38;74.97
72086;BME280;64750;52.134;5.424;2023-04-26T05:17:18;102151.16;;;4.41;74.68
72086;BME280;64750;52.134;5.424;2023-04-26T05:19:45;102156.31;;;4.44;74.85
72086;BME280;64750;52.134;5.424;2023-04-26T05:22:12;102158.81;;;4.50;74.85
72086;BME280;64750;52.134;5.424;2023-04-26T05:24:46;102156.16;;;4.53;75.20
72086;BME280;64750;52.134;5.424;2023-04-26T05:27:13;102157.81;;;4.60;75.12
72086;BME280;64750;52.134;5.424;2023-04-26T05:29:40;102152.56;;;4.64;74.99
72086;BME280;64750;52.134;5.424;2023-04-26T05:32:06;102159.44;;;4.68;75.01
72086;BME280;64750;52.134;5.424;2023-04-26T05:34:33;102155.91;;;4.73;75.30
72086;BME280;64750;52.134;5.424;2023-04-26T05:36:59;102155.88;;;4.75;75.27
72086;BME280;64750;52.134;5.424;2023-04-26T05:39:26;102161.03;;;4.78;75.56
72086;BME280;64750;52.134;5.424;2023-04-26T05:41:52;102156.63;;;4.82;75.58
72086;BME280;64750;52.134;5.424;2023-04-26T05:44:19;102164.41;;;4.86;75.39
72086;BME280;64750;52.134;5.424;2023-04-26T05:46:45;102165.19;;;4.91;75.19
72086;BME280;64750;52.134;5.424;2023-04-26T05:49:12;102163.41;;;4.95;75.33
72086;BME280;64750;52.134;5.424;2023-04-26T05:51:38;102164.19;;;5.00;75.28
72086;BME280;64750;52.134;5.424;2023-04-26T05:54:05;102155.47;;;5.03;75.39
72086;BME280;64750;52.134;5.424;2023-04-26T05:56:31;102157.97;;;5.09;75.34
72086;BME280;64750;52.134;5.424;2023-04-26T05:58:58;102160.44;;;5.15;75.31
72086;BME280;64750;52.134;5.424;2023-04-26T06:01:24;102150.84;;;5.19;75.45
72086;BME280;64750;52.134;5.424;2023-04-26T06:03:51;102161.22;;;5.23;75.23
72086;BME280;64750;52.134;5.424;2023-04-26T06:06:21;102161.16;;;5.28;75.27
72086;BME280;64750;52.134;5.424;2023-04-26T06:08:47;102156.72;;;5.32;74.98
72086;BME280;64750;52.134;5.424;2023-04-26T06:11:14;102154.94;;;5.34;75.04
72086;BME280;64750;52.134;5.424;2023-04-26T06:13:40;102161.78;;;5.39;75.13
72086;BME280;64750;52.134;5.424;2023-04-26T06:16:06;102164.38;;;5.42;75.46
72086;BME280;64750;52.134;5.424;2023-04-26T06:18:33;102157.38;;;5.46;75.31
72086;BME280;64750;52.134;5.424;2023-04-26T06:20:59;102165.16;;;5.48;75.53
72086;BME280;64750;52.134;5.424;2023-04-26T06:23:26;102159.00;;;5.52;75.61
72086;BME280;64750;52.134;5.424;2023-04-26T06:25:52;102160.69;;;5.54;75.40
72086;BME280;64750;52.134;5.424;2023-04-26T06:28:18;102162.38;;;5.57;75.51
72086;BME280;64750;52.134;5.424;2023-04-26T06:30:45;102170.16;;;5.58;74.99
72086;BME280;64750;52.134;5.424;2023-04-26T06:33:11;102167.53;;;5.60;75.28
72086;BME280;64750;52.134;5.424;2023-04-26T06:35:40;102177.09;;;5.59;75.03
72086;BME280;64750;52.134;5.424;2023-04-26T06:38:07;102173.63;;;5.61;75.20
72086;BME280;64750;52.134;5.424;2023-04-26T06:40:34;102183.97;;;5.64;74.99
72086;BME280;64750;52.134;5.424;2023-04-26T06:43:02;102180.41;;;5.68;74.78
72086;BME280;64750;52.134;5.424;2023-04-26T06:45:29;102178.63;;;5.73;74.87
72086;BME280;64750;52.134;5.424;2023-04-26T06:47:55;102189.00;;;5.76;74.25
72086;BME280;64750;52.134;5.424;2023-04-26T06:50:23;102187.19;;;5.80;74.13
72086;BME280;64750;52.134;5.424;2023-04-26T06:52:49;102190.59;;;5.83;74.01
72086;BME280;64750;52.134;5.424;2023-04-26T06:55:16;102195.81;;;5.83;73.20
72086;BME280;64750;52.134;5.424;2023-04-26T06:57:44;102188.00;;;5.83;72.48
72086;BME280;64750;52.134;5.424;2023-04-26T07:00:10;102194.03;;;5.85;72.20
72086;BME280;64750;52.134;5.424;2023-04-26T07:02:37;102187.03;;;5.87;71.90
72086;BME280;64750;52.134;5.424;2023-04-26T07:05:04;102185.22;;;5.93;71.84
72086;BME280;64750;52.134;5.424;2023-04-26T07:07:31;102189.47;;;5.97;71.58
72086;BME280;64750;52.134;5.424;2023-04-26T07:09:58;102183.28;;;6.02;71.67
72086;BME280;64750;52.134;5.424;2023-04-26T07:12:24;102175.47;;;6.02;71.43
72086;BME280;64750;52.134;5.424;2023-04-26T07:14:50;102184.97;;;6.06;71.53
72086;BME280;64750;52.134;5.424;2023-04-26T07:17:17;102182.25;;;6.11;71.20
72086;BME280;64750;52.134;5.424;2023-04-26T07:19:43;102180.44;;;6.15;71.51
72086;BME280;64750;52.134;5.424;2023-04-26T07:22:10;102178.69;;;6.17;71.35
72086;BME280;64750;52.134;5.424;2023-04-26T07:24:37;102176.03;;;6.18;70.54
72086;BME280;64750;52.134;5.424;2023-04-26T07:27:03;102176.88;;;6.20;70.75
72086;BME280;64750;52.134;5.424;2023-04-26T07:29:29;102177.56;;;6.29;71.04
72086;BME280;64750;52.134;5.424;2023-04-26T07:31:56;102170.50;;;6.34;70.71
72086;BME280;64750;52.134;5.424;2023-04-26T07:34:24;102171.28;;;6.37;70.70
72086;BME280;64750;52.134;5.424;2023-04-26T07:36:50;102168.56;;;6.42;70.80
72086;BME280;64750;52.134;5.424;2023-04-26T07:39:17;102168.56;;;6.42;70.52
72086;BME280;64750;52.134;5.424;2023-04-26T07:41:43;102174.66;;;6.43;69.50
72086;BME280;64750;52.134;5.424;2023-04-26T07:44:09;102182.53;;;6.41;69.32
72086;BME280;64750;52.134;5.424;2023-04-26T07:46:36;102185.03;;;6.46;69.81
72086;BME280;64750;52.134;5.424;2023-04-26T07:49:03;102182.34;;;6.50;69.59
72086;BME280;64750;52.134;5.424;2023-04-26T07:51:29;102184.91;;;6.52;68.50
72086;BME280;64750;52.134;5.424;2023-04-26T07:53:55;102184.09;;;6.48;67.78
72086;BME280;64750;52.134;5.424;2023-04-26T07:56:22;102188.53;;;6.46;67.45
72086;BME280;64750;52.134;5.424;2023-04-26T07:58:49;102191.13;;;6.46;67.66
72086;BME280;64750;52.134;5.424;2023-04-26T08:01:16;102191.13;;;6.46;67.07
72086;BME280;64750;52.134;5.424;2023-04-26T08:03:42;102196.22;;;6.52;67.35
72086;BME280;64750;52.134;5.424;2023-04-26T08:06:09;102192.59;;;6.60;66.52
72086;BME280;64750;52.134;5.424;2023-04-26T08:08:36;102196.84;;;6.64;66.58
72086;BME280;64750;52.134;5.424;2023-04-26T08:11:10;102204.50;;;6.73;66.48
72086;BME280;64750;52.134;5.424;2023-04-26T08:13:36;102197.44;;;6.77;66.13
72086;BME280;64750;52.134;5.424;2023-04-26T08:16:03;102197.34;;;6.81;64.74
72086;BME280;64750;52.134;5.424;2023-04-26T08:18:30;102193.84;;;6.82;64.54
72086;BME280;64750;52.134;5.424;2023-04-26T08:20:56;102187.72;;;6.82;63.65
72086;BME280;64750;52.134;5.424;2023-04-26T08:23:23;102188.47;;;6.88;64.99
72086;BME280;64750;52.134;5.424;2023-04-26T08:25:50;102196.16;;;6.95;65.13
72086;BME280;64750;52.134;5.424;2023-04-26T08:28:16;102193.47;;;6.98;63.86
72086;BME280;64750;52.134;5.424;2023-04-26T08:30:43;102193.53;;;6.95;63.26
72086;BME280;64750;52.134;5.424;2023-04-26T08:33:09;102190.13;;;6.93;62.63
72086;BME280;64750;52.134;5.424;2023-04-26T08:35:36;102190.16;;;6.89;62.07
72086;BME280;64750;52.134;5.424;2023-04-26T08:38:02;102187.56;;;6.89;62.05
72086;BME280;64750;52.134;5.424;2023-04-26T08:40:29;102184.97;;;6.88;61.64
72086;BME280;64750;52.134;5.424;2023-04-26T08:42:56;102184.94;;;6.89;62.63
72086;BME280;64750;52.134;5.424;2023-04-26T08:45:23;102185.84;;;6.88;62.34
72086;BME280;64750;52.134;5.424;2023-04-26T08:47:52;102184.13;;;6.87;62.68
72086;BME280;64750;52.134;5.424;2023-04-26T08:50:20;102196.31;;;6.87;62.91
72086;BME280;64750;52.134;5.424;2023-04-26T08:52:49;102192.09;;;6.81;62.86
72086;BME280;64750;52.134;5.424;2023-04-26T08:55:17;102193.88;;;6.79;62.83
72086;BME280;64750;52.134;5.424;2023-04-26T08:57:46;102200.03;;;6.78;62.99
72086;BME280;64750;52.134;5.424;2023-04-26T09:00:14;102196.59;;;6.76;63.87
72086;BME280;64750;52.134;5.424;2023-04-26T09:02:45;102197.59;;;6.70;64.49
72086;BME280;64750;52.134;5.424;2023-04-26T09:05:12;102194.22;;;6.64;65.58
72086;BME280;64750;52.134;5.424;2023-04-26T09:10:10;102196.97;;;6.57;65.75
72086;BME280;64750;52.134;5.424;2023-04-26T09:12:37;102200.47;;;6.58;65.92
72086;BME280;64750;52.134;5.424;2023-04-26T09:15:05;102196.13;;;6.57;65.81
72086;BME280;64750;52.134;5.424;2023-04-26T09:17:37;102187.34;;;6.60;65.36
72086;BME280;64750;52.134;5.424;2023-04-26T09:20:18;102192.53;;;6.63;65.22
72086;BME280;64750;52.134;5.424;2023-04-26T09:22:47;102189.81;;;6.67;65.02
72086;BME280;64750;52.134;5.424;2023-04-26T09:25:16;102190.63;;;6.69;63.90
72086;BME280;64750;52.134;5.424;2023-04-26T09:27:43;102193.16;;;6.72;64.21
72086;BME280;64750;52.134;5.424;2023-04-26T09:30:14;102196.59;;;6.76;63.71
72086;BME280;64750;52.134;5.424;2023-04-26T09:33:01;102192.09;;;6.81;64.14
72086;BME280;64750;52.134;5.424;2023-04-26T09:35:37;102191.13;;;6.85;64.21
72086;BME280;64750;52.134;5.424;2023-04-26T09:38:10;102198.00;;;6.91;64.43
72086;BME280;64750;52.134;5.424;2023-04-26T09:40:42;102198.75;;;6.96;64.48
72086;BME280;64750;52.134;5.424;2023-04-26T09:43:15;102194.31;;;6.98;63.99
72086;BME280;64750;52.134;5.424;2023-04-26T09:45:48;102198.72;;;6.98;63.71
72086;BME280;64750;52.134;5.424;2023-04-26T09:48:31;102195.16;;;7.00;63.14
72086;BME280;64750;52.134;5.424;2023-04-26T09:51:08;102190.78;;;7.01;62.68
72086;BME280;64750;52.134;5.424;2023-04-26T09:53:44;102201.16;;;7.05;63.00
72086;BME280;64750;52.134;5.424;2023-04-26T10:01:14;102187.84;;;7.15;62.04
72086;BME280;64750;52.134;5.424;2023-04-26T10:03:42;102189.38;;;7.23;60.65
72086;BME280;64750;52.134;5.424;2023-04-26T10:06:11;102192.00;;;7.23;60.92
72086;BME280;64750;52.134;5.424;2023-04-26T10:08:37;102183.22;;;7.26;60.77
72086;BME280;64750;52.134;5.424;2023-04-26T10:11:04;102182.28;;;7.29;60.56
72086;BME280;64750;52.134;5.424;2023-04-26T10:13:33;102177.88;;;7.31;59.14
72086;BME280;64750;52.134;5.424;2023-04-26T10:16:00;102181.34;;;7.31;59.02
72086;BME280;64750;52.134;5.424;2023-04-26T10:18:28;102172.56;;;7.34;58.37
72086;BME280;64750;52.134;5.424;2023-04-26T10:20:57;102177.69;;;7.38;58.74
72086;BME280;64750;52.134;5.424;2023-04-26T10:23:25;102182.00;;;7.39;58.21
72086;BME280;64750;52.134;5.424;2023-04-26T10:25:53;102182.03;;;7.38;57.08
72086;BME280;64750;52.134;5.424;2023-04-26T10:31:09;102176.63;;;7.46;58.06
72086;BME280;64750;52.134;5.424;2023-04-26T10:33:35;102177.50;;;7.46;58.90
72086;BME280;64750;52.134;5.424;2023-04-26T10:38:35;102178.38;;;7.45;57.50
72086;BME280;64750;52.134;5.424;2023-04-26T10:41:27;102174.94;;;7.43;57.46
72086;BME280;64750;52.134;5.424;2023-04-26T10:43:55;102177.56;;;7.43;57.87
72086;BME280;64750;52.134;5.424;2023-04-26T10:46:38;102174.88;;;7.46;58.45
72086;BME280;64750;52.134;5.424;2023-04-26T10:49:13;102177.41;;;7.49;58.44
72086;BME280;64750;52.134;5.424;2023-04-26T10:51:40;102176.56;;;7.47;58.51
72086;BME280;64750;52.134;5.424;2023-04-26T10:54:06;102180.03;;;7.49;57.82
72086;BME280;64750;52.134;5.424;2023-04-26T10:59:07;102179.97;;;7.52;58.78
72086;BME280;64750;52.134;5.424;2023-04-26T11:01:54;102169.31;;;7.59;58.63
72086;BME280;64750;52.134;5.424;2023-04-26T11:04:21;102179.72;;;7.62;58.12
72086;BME280;64750;52.134;5.424;2023-04-26T11:06:53;102178.00;;;7.61;58.14
72086;BME280;64750;52.134;5.424;2023-04-26T11:09:37;102174.38;;;7.65;58.39
72086;BME280;64750;52.134;5.424;2023-04-26T11:12:12;102172.50;;;7.70;58.82
72086;BME280;64750;52.134;5.424;2023-04-26T11:14:43;102176.78;;;7.72;59.52
72086;BME280;64750;52.134;5.424;2023-04-26T11:17:11;102167.28;;;7.70;59.02
72086;BME280;64750;52.134;5.424;2023-04-26T11:19:40;102162.91;;;7.70;58.45
72086;BME280;64750;52.134;5.424;2023-04-26T11:22:07;102161.03;;;7.76;58.72
72086;BME280;64750;52.134;5.424;2023-04-26T11:24:34;102159.09;;;7.82;58.33
72086;BME280;64750;52.134;5.424;2023-04-26T11:27:10;102152.78;;;7.89;57.94
72086;BME280;64750;52.134;5.424;2023-04-26T11:29:37;102154.47;;;7.92;56.79
72086;BME280;64750;52.134;5.424;2023-04-26T11:32:04;102147.47;;;7.93;56.54
72086;BME280;64750;52.134;5.424;2023-04-26T11:34:34;102158.78;;;7.95;55.39
72086;BME280;64750;52.134;5.424;2023-04-26T11:37:02;102147.47;;;7.93;54.35
72086;BME280;64750;52.134;5.424;2023-04-26T11:39:31;102149.03;;;8.00;55.82
72086;BME280;64750;52.134;5.424;2023-04-26T11:42:08;102150.28;;;8.16;56.35
72086;BME280;64750;52.134;5.424;2023-04-26T11:44:36;102147.13;;;8.35;56.71
72086;BME280;64750;52.134;5.424;2023-04-26T11:47:03;102147.69;;;8.46;55.98
72086;BME280;64750;52.134;5.424;2023-04-26T11:49:31;102145.09;;;8.46;55.66
72086;BME280;64750;52.134;5.424;2023-04-26T11:51:58;102143.19;;;8.51;55.13
72086;BME280;64750;52.134;5.424;2023-04-26T11:54:29;102139.22;;;8.66;56.19
72086;BME280;64750;52.134;5.424;2023-04-26T11:56:57;102144.00;;;8.82;56.19
72086;BME280;64750;52.134;5.424;2023-04-26T11:59:27;102143.31;;;8.75;55.83
72086;BME280;64750;52.134;5.424;2023-04-26T12:01:56;102136.91;;;8.84;56.37
72086;BME280;64750;52.134;5.424;2023-04-26T12:04:29;102141.84;;;8.95;56.49
72086;BME280;64750;52.134;5.424;2023-04-26T12:06:56;102140.06;;;8.95;55.60
72086;BME280;64750;52.134;5.424;2023-04-26T12:09:27;102139.47;;;8.85;55.86
72086;BME280;64750;52.134;5.424;2023-04-26T12:11:58;102146.75;;;8.77;55.97
72086;BME280;64750;52.134;5.424;2023-04-26T12:14:35;102142.69;;;8.67;55.18
72086;BME280;64750;52.134;5.424;2023-04-26T12:17:02;102143.91;;;8.57;55.21
72086;BME280;64750;52.134;5.424;2023-04-26T12:19:35;102150.31;;;8.46;55.76
72086;BME280;64750;52.134;5.424;2023-04-26T12:22:03;102148.69;;;8.42;55.66
72086;BME280;64750;52.134;5.424;2023-04-26T12:24:31;102154.94;;;8.36;55.74
72086;BME280;64750;52.134;5.424;2023-04-26T12:27:02;102157.59;;;8.35;56.07
72086;BME280;64750;52.134;5.424;2023-04-26T12:29:31;102165.53;;;8.32;55.33
72086;BME280;64750;52.134;5.424;2023-04-26T12:31:58;102158.63;;;8.31;55.31
72086;BME280;64750;52.134;5.424;2023-04-26T12:34:25;102162.97;;;8.30;56.15
72086;BME280;64750;52.134;5.424;2023-04-26T12:36:51;102162.97;;;8.30;56.26
72086;BME280;64750;52.134;5.424;2023-04-26T12:39:18;102167.38;;;8.30;56.62
72086;BME280;64750;52.134;5.424;2023-04-26T12:41:44;102172.59;;;8.30;56.74
72086;BME280;64750;52.134;5.424;2023-04-26T12:44:11;102170.03;;;8.28;55.85
72086;BME280;64750;52.134;5.424;2023-04-26T12:46:39;102165.75;;;8.26;56.42
72086;BME280;64750;52.134;5.424;2023-04-26T12:49:06;102166.50;;;8.29;56.79
72086;BME280;64750;52.134;5.424;2023-04-26T12:51:32;102160.41;;;8.29;56.33
72086;BME280;64750;52.134;5.424;2023-04-26T12:53:59;102167.38;;;8.30;57.03
72086;BME280;64750;52.134;5.424;2023-04-26T12:56:25;102152.41;;;8.33;57.25
72086;BME280;64750;52.134;5.424;2023-04-26T12:58:52;102154.88;;;8.40;58.02
72086;BME280;64750;52.134;5.424;2023-04-26T13:01:18;102154.72;;;8.44;57.56
72086;BME280;64750;52.134;5.424;2023-04-26T13:03:45;102152.19;;;8.41;56.73
72086;BME280;64750;52.134;5.424;2023-04-26T13:06:11;102161.84;;;8.39;55.89
72086;BME280;64750;52.134;5.424;2023-04-26T13:08:38;102161.06;;;8.35;56.01
72086;BME280;64750;52.134;5.424;2023-04-26T13:11:04;102156.66;;;8.37;56.78
72086;BME280;64750;52.134;5.424;2023-04-26T13:13:31;102153.19;;;8.37;56.67
72086;BME280;64750;52.134;5.424;2023-04-26T13:16:09;102162.78;;;8.36;57.03
72086;BME280;64750;52.134;5.424;2023-04-26T13:18:35;102167.09;;;8.39;57.41